createdAt,value
2023-03-13T00:00:42.328Z,7.19
2023-03-13T00:02:14.109Z,7.23
2023-03-13T00:03:46.248Z,7.24
2023-03-13T00:05:18.149Z,7.28
2023-03-13T00:06:49.924Z,7.29
2023-03-13T00:08:21.652Z,7.32
2023-03-13T00:09:53.352Z,7.33
2023-03-13T00:11:25.059Z,7.37
2023-03-13T00:12:56.797Z,7.39
2023-03-13T00:14:28.521Z,7.43
2023-03-13T00:16:08.245Z,7.46
2023-03-13T00:17:40.008Z,7.50
2023-03-13T00:19:11.865Z,7.54
2023-03-13T00:20:43.595Z,7.57
2023-03-13T00:22:15.324Z,7.60
2023-03-13T00:23:47.911Z,7.62
2023-03-13T00:25:19.641Z,7.64
2023-03-13T00:26:51.380Z,7.67
2023-03-13T00:28:23.138Z,7.68
2023-03-13T00:29:54.855Z,7.70
2023-03-13T00:31:29.396Z,7.72
2023-03-13T00:33:01.247Z,7.73
2023-03-13T00:34:32.979Z,7.75
2023-03-13T00:36:08.012Z,7.76
2023-03-13T00:37:39.849Z,7.77
2023-03-13T00:39:11.595Z,7.77
2023-03-13T00:40:43.292Z,7.79
2023-03-13T00:42:15.009Z,7.80
2023-03-13T00:43:48.096Z,7.81
2023-03-13T00:45:19.863Z,7.82
2023-03-13T00:46:51.977Z,7.84
2023-03-13T00:48:24.129Z,7.85
2023-03-13T00:49:55.842Z,7.85
2023-03-13T00:51:28.346Z,7.87
2023-03-13T00:53:00.191Z,7.88
2023-03-13T00:54:32.974Z,7.91
2023-03-13T00:56:07.960Z,7.89
2023-03-13T00:57:39.769Z,7.92
2023-03-13T00:59:11.536Z,7.93
2023-03-13T01:00:43.444Z,7.93
2023-03-13T01:02:15.307Z,7.94
2023-03-13T01:03:50.472Z,7.96
2023-03-13T01:05:22.204Z,7.97
2023-03-13T01:06:54.245Z,7.98
2023-03-13T01:08:26.256Z,7.99
2023-03-13T01:09:57.971Z,8.00
2023-03-13T01:11:32.173Z,8.00
2023-03-13T01:13:05.387Z,8.01
2023-03-13T01:14:37.119Z,8.03
2023-03-13T01:16:15.257Z,8.03
2023-03-13T01:17:47.019Z,8.04
2023-03-13T01:19:19.548Z,8.06
2023-03-13T01:20:51.435Z,8.08
2023-03-13T01:22:23.697Z,8.09
2023-03-13T01:23:55.579Z,8.12
2023-03-13T01:25:27.318Z,8.13
2023-03-13T01:26:59.054Z,8.14
2023-03-13T01:28:30.799Z,8.14
2023-03-13T01:30:02.511Z,8.16
2023-03-13T01:31:35.781Z,8.16
2023-03-13T01:33:07.665Z,8.17
2023-03-13T01:34:40.714Z,8.17
2023-03-13T01:36:13.573Z,8.17
2023-03-13T01:37:45.300Z,8.17
2023-03-13T01:39:17.188Z,8.19
2023-03-13T01:40:49.629Z,8.20
2023-03-13T01:42:21.423Z,8.18
2023-03-13T01:43:53.490Z,8.19
2023-03-13T01:46:03.196Z,8.15
2023-03-13T01:47:42.654Z,8.19
2023-03-13T01:49:33.672Z,8.14
2023-03-13T01:51:10.279Z,8.16
2023-03-13T01:52:42.438Z,8.15
2023-03-13T01:54:32.722Z,8.13
2023-03-13T01:56:07.998Z,8.12
2023-03-13T01:57:52.497Z,8.07
2023-03-13T01:59:30.423Z,8.08
2023-03-13T02:01:03.653Z,8.07
2023-03-13T02:02:38.211Z,8.05
2023-03-13T02:04:12.472Z,8.03
2023-03-13T02:05:46.847Z,8.01
2023-03-13T02:07:26.036Z,7.98
2023-03-13T02:09:03.025Z,7.96
2023-03-13T02:10:42.074Z,7.93
2023-03-13T02:12:18.519Z,7.93
2023-03-13T02:13:51.944Z,7.92
2023-03-13T02:15:27.466Z,7.89
2023-03-13T02:17:00.821Z,7.88
2023-03-13T02:18:32.528Z,7.86
2023-03-13T02:20:05.031Z,7.84
2023-03-13T02:21:43.748Z,7.80
2023-03-13T02:23:25.241Z,7.79
2023-03-13T02:25:18.348Z,7.76
2023-03-13T02:26:50.245Z,7.76
2023-03-13T02:28:27.620Z,7.73
2023-03-13T02:29:59.751Z,7.70
2023-03-13T02:31:31.927Z,7.68
2023-03-13T02:33:04.632Z,7.69
2023-03-13T02:34:40.061Z,7.66
2023-03-13T02:36:14.765Z,7.65
2023-03-13T02:37:54.103Z,7.62
2023-03-13T02:39:28.453Z,7.63
2023-03-13T02:41:02.537Z,7.63
2023-03-13T02:42:34.751Z,7.63
2023-03-13T02:44:07.032Z,7.65
2023-03-13T02:45:38.788Z,7.66
2023-03-13T02:47:22.282Z,7.69
2023-03-13T02:48:57.252Z,7.69
2023-03-13T02:50:30.691Z,7.74
2023-03-13T02:52:16.799Z,7.71
2023-03-13T02:53:51.072Z,7.77
2023-03-13T02:55:35.277Z,7.79
2023-03-13T02:57:07.625Z,7.83
2023-03-13T02:58:49.834Z,7.85
2023-03-13T03:00:27.794Z,7.90
2023-03-13T03:02:00.430Z,7.93
2023-03-13T03:03:32.422Z,7.95
2023-03-13T03:05:04.837Z,7.98
2023-03-13T03:06:36.705Z,8.01
2023-03-13T03:08:09.587Z,8.04
2023-03-13T03:09:41.499Z,8.06
2023-03-13T03:11:17.916Z,8.10
2023-03-13T03:12:52.689Z,8.09
2023-03-13T03:14:24.587Z,8.10
2023-03-13T03:15:57.285Z,8.14
2023-03-13T03:17:29.097Z,8.15
2023-03-13T03:19:00.936Z,8.16
2023-03-13T03:20:32.786Z,8.19
2023-03-13T03:22:05.021Z,8.21
2023-03-13T03:23:38.172Z,8.21
2023-03-13T03:25:10.196Z,8.21
2023-03-13T03:26:41.953Z,8.21
2023-03-13T03:28:23.466Z,8.20
2023-03-13T03:29:55.217Z,8.20
2023-03-13T03:31:27.418Z,8.20
2023-03-13T03:33:03.694Z,8.17
2023-03-13T03:34:35.510Z,8.15
2023-03-13T03:36:10.723Z,8.13
2023-03-13T03:37:42.587Z,8.07
2023-03-13T03:39:14.412Z,8.07
2023-03-13T03:40:46.150Z,8.06
2023-03-13T03:42:18.789Z,8.04
2023-03-13T03:43:50.666Z,8.01
2023-03-13T03:45:25.912Z,7.99
2023-03-13T03:46:57.769Z,7.99
2023-03-13T03:48:32.270Z,7.97
2023-03-13T03:50:04.596Z,7.96
2023-03-13T03:51:42.933Z,7.94
2023-03-13T03:53:15.307Z,7.94
2023-03-13T03:54:47.094Z,7.92
2023-03-13T03:56:20.156Z,7.90
2023-03-13T03:57:57.020Z,7.91
2023-03-13T04:00:00.295Z,7.89
2023-03-13T04:01:32.097Z,7.89
2023-03-13T04:03:04.041Z,7.86
2023-03-13T04:04:36.051Z,7.86
2023-03-13T04:06:23.397Z,7.84
2023-03-13T04:07:55.431Z,7.83
2023-03-13T04:09:28.101Z,7.82
2023-03-13T04:11:01.994Z,7.81
2023-03-13T04:12:36.181Z,7.80
2023-03-13T04:14:08.125Z,7.79
2023-03-13T04:15:40.597Z,7.77
2023-03-13T04:17:14.631Z,7.77
2023-03-13T04:18:47.855Z,7.75
2023-03-13T04:20:21.005Z,7.74
2023-03-13T04:21:52.738Z,7.73
2023-03-13T04:23:24.909Z,7.72
2023-03-13T04:24:57.059Z,7.70
2023-03-13T04:26:28.875Z,7.70
2023-03-13T04:28:03.286Z,7.68
2023-03-13T04:29:42.609Z,7.67
2023-03-13T04:31:33.453Z,7.66
2023-03-13T04:33:25.688Z,7.65
2023-03-13T04:35:11.475Z,7.63
2023-03-13T04:37:01.422Z,7.63
2023-03-13T04:38:50.468Z,7.62
2023-03-13T04:40:39.227Z,7.61
2023-03-13T04:42:24.992Z,7.61
2023-03-13T04:44:07.868Z,7.61
2023-03-13T04:45:59.202Z,7.56
2023-03-13T04:47:49.870Z,7.62
2023-03-13T04:49:39.256Z,7.63
2023-03-13T04:51:19.139Z,7.65
2023-03-13T04:52:59.528Z,7.67
2023-03-13T04:54:38.513Z,7.67
2023-03-13T04:56:35.994Z,7.66
2023-03-13T04:58:31.157Z,7.70
2023-03-13T13:26:26.839Z,11.47
2023-03-13T13:28:18.438Z,12.00
2023-03-13T13:29:54.979Z,12.51
2023-03-13T13:32:14.618Z,13.14
2023-03-13T13:33:46.466Z,13.60
2023-03-13T13:35:36.987Z,13.98
2023-03-13T13:37:20.650Z,14.35
2023-03-13T13:38:52.803Z,14.64
2023-03-13T13:40:32.010Z,14.88
2023-03-13T13:42:31.541Z,15.12
2023-03-13T13:44:22.686Z,15.30
2023-03-13T13:46:01.712Z,15.48
2023-03-13T13:47:34.027Z,15.58
2023-03-13T13:49:08.412Z,15.67
2023-03-13T13:51:00.175Z,15.73
2023-03-13T13:52:40.087Z,15.81
2023-03-13T13:54:33.699Z,15.80
2023-03-13T13:56:28.417Z,15.82
2023-03-13T13:58:13.309Z,15.84
2023-03-13T13:59:49.342Z,15.89
2023-03-13T14:01:21.270Z,15.88
2023-03-13T14:02:55.456Z,15.87
2023-03-13T14:04:37.581Z,15.85
2023-03-13T14:06:19.651Z,15.83
2023-03-13T14:08:03.502Z,15.84
2023-03-13T14:09:37.264Z,15.86
2023-03-13T14:11:22.701Z,15.85
2023-03-13T14:12:57.620Z,15.86
2023-03-13T14:14:29.601Z,15.90
2023-03-13T14:16:24.188Z,15.92
2023-03-13T14:18:21.208Z,15.99
2023-03-13T14:19:52.991Z,16.05
2023-03-13T14:21:26.560Z,16.11
2023-03-13T14:23:01.675Z,16.12
2023-03-13T14:24:34.082Z,16.13
2023-03-13T14:26:20.395Z,16.15
2023-03-13T14:27:53.807Z,16.18
2023-03-13T14:29:26.489Z,16.19
2023-03-13T14:30:58.541Z,16.18
2023-03-13T14:32:30.436Z,16.18
2023-03-13T14:34:05.729Z,16.17
2023-03-13T14:35:40.130Z,16.16
2023-03-13T14:37:36.143Z,16.09
2023-03-13T14:39:18.885Z,16.06
2023-03-13T14:40:51.877Z,16.09
2023-03-13T14:42:23.627Z,16.07
2023-03-13T14:44:01.492Z,16.04
2023-03-13T14:45:36.968Z,16.02
2023-03-13T14:47:22.837Z,16.01
2023-03-13T14:48:58.477Z,16.02
2023-03-13T14:50:30.459Z,16.01
2023-03-13T14:52:13.944Z,16.02
2023-03-13T14:54:00.894Z,16.00
2023-03-13T14:55:35.341Z,16.05
2023-03-13T14:57:10.367Z,16.08
2023-03-13T14:58:42.212Z,16.10
2023-03-13T15:00:40.491Z,16.07
2023-03-13T15:02:27.883Z,16.07
2023-03-13T15:03:59.953Z,16.12
2023-03-13T15:05:33.848Z,16.10
2023-03-13T15:07:08.968Z,16.11
2023-03-13T15:08:43.565Z,16.12
2023-03-13T15:10:19.927Z,16.10
2023-03-13T15:11:58.049Z,16.09
2023-03-13T15:13:36.207Z,16.08
2023-03-13T15:15:10.496Z,16.07
2023-03-13T15:16:42.303Z,16.04
2023-03-13T15:18:25.516Z,15.98
2023-03-13T15:19:59.340Z,15.99
2023-03-13T15:21:34.162Z,15.96
2023-03-13T15:23:13.947Z,15.93
2023-03-13T15:24:59.563Z,15.92
2023-03-13T15:26:36.564Z,15.89
2023-03-13T15:28:18.418Z,15.85
2023-03-13T15:29:50.507Z,15.86
2023-03-13T15:31:26.928Z,15.82
2023-03-13T15:33:00.207Z,15.83
2023-03-13T15:34:34.111Z,15.82
2023-03-13T15:36:06.124Z,15.84
2023-03-13T15:37:37.863Z,15.88
2023-03-13T15:39:15.199Z,15.90
2023-03-13T15:40:47.575Z,15.92
2023-03-13T15:42:19.312Z,15.96
2023-03-13T15:43:55.554Z,15.96
2023-03-13T15:45:27.288Z,15.99
2023-03-13T15:46:59.052Z,16.00
2023-03-13T15:48:31.802Z,15.97
2023-03-13T15:50:03.700Z,15.97
2023-03-13T15:51:35.439Z,15.93
2023-03-13T15:53:19.476Z,15.88
2023-03-13T15:54:52.207Z,15.89
2023-03-13T15:56:24.020Z,15.88
2023-03-13T15:57:55.919Z,15.87
2023-03-13T15:59:27.642Z,15.84
2023-03-13T16:00:59.413Z,15.83
2023-03-13T16:02:31.218Z,15.81
2023-03-13T16:04:03.277Z,15.79
2023-03-13T16:05:35.138Z,15.78
2023-03-13T16:07:14.869Z,15.75
2023-03-13T16:08:47.458Z,15.77
2023-03-13T16:10:25.199Z,15.75
2023-03-13T16:11:58.665Z,15.73
2023-03-13T16:13:31.017Z,15.67
2023-03-13T16:15:04.731Z,15.66
2023-03-13T16:16:37.856Z,15.61
2023-03-13T16:18:23.412Z,15.57
2023-03-13T16:19:55.736Z,15.56
2023-03-13T16:21:31.325Z,15.49
2023-03-13T16:23:03.927Z,15.45
2023-03-13T16:24:35.937Z,15.39
2023-03-13T16:26:15.708Z,15.32
2023-03-13T16:27:47.785Z,15.29
2023-03-13T16:29:19.514Z,15.23
2023-03-13T16:30:51.266Z,15.17
2023-03-13T16:32:25.373Z,15.12
2023-03-13T16:33:58.390Z,15.07
2023-03-13T16:35:30.154Z,15.00
2023-03-13T16:37:01.878Z,14.96
2023-03-13T16:38:33.612Z,14.93
2023-03-13T16:40:15.420Z,14.81
2023-03-13T16:41:47.228Z,14.83
2023-03-13T16:43:18.934Z,14.78
2023-03-13T16:44:50.672Z,14.75
2023-03-13T16:46:42.341Z,14.70
2023-03-13T16:48:19.383Z,14.70
2023-03-13T16:49:51.109Z,14.69
2023-03-13T16:51:25.008Z,14.66
2023-03-13T16:52:56.773Z,14.56
2023-03-13T16:54:28.483Z,14.53
2023-03-13T16:56:00.341Z,14.50
2023-03-13T16:57:32.830Z,14.42
2023-03-13T16:59:11.811Z,14.35
2023-03-13T17:00:53.541Z,14.31
2023-03-13T17:02:31.281Z,14.22
2023-03-13T17:04:03.751Z,14.18
2023-03-13T17:05:35.572Z,14.12
2023-03-13T17:07:18.571Z,14.00
2023-03-13T17:08:50.368Z,13.98
2023-03-13T17:10:26.803Z,13.92
2023-03-13T17:11:58.527Z,13.85
2023-03-13T17:13:30.256Z,13.80
2023-03-13T17:15:02.198Z,13.72
2023-03-13T17:16:36.429Z,13.65
2023-03-13T17:18:09.830Z,13.61
2023-03-13T17:19:41.562Z,13.58
2023-03-13T17:21:16.825Z,13.53
2023-03-13T17:22:48.651Z,13.51
2023-03-13T17:24:20.415Z,13.43
2023-03-13T17:25:52.230Z,13.40
2023-03-13T17:27:24.299Z,13.38
2023-03-13T17:28:57.785Z,13.35
2023-03-13T17:30:31.305Z,13.33
2023-03-13T17:32:04.154Z,13.32
2023-03-13T17:33:36.153Z,13.28
2023-03-13T17:35:08.236Z,13.27
2023-03-13T17:36:40.096Z,13.28
2023-03-13T17:38:11.824Z,13.28
2023-03-13T17:39:44.706Z,13.26
2023-03-13T17:41:19.268Z,13.26
2023-03-13T17:42:51.154Z,13.23
2023-03-13T17:44:22.917Z,13.27
2023-03-13T17:45:55.755Z,13.29
2023-03-13T17:47:28.386Z,13.31
2023-03-13T17:49:01.228Z,13.34
2023-03-13T17:50:32.939Z,13.32
2023-03-13T17:52:04.815Z,13.32
2023-03-13T17:53:36.550Z,13.32
2023-03-13T17:55:09.456Z,13.36
2023-03-13T17:56:41.418Z,13.37
2023-03-13T17:58:13.128Z,13.38
2023-03-13T17:59:45.538Z,13.39
2023-03-13T18:01:21.251Z,13.41
2023-03-13T18:02:53.092Z,13.43
2023-03-13T18:04:24.888Z,13.40
2023-03-13T18:05:56.701Z,13.38
2023-03-13T18:07:29.827Z,13.40
2023-03-13T18:09:05.383Z,13.40
2023-03-13T18:10:37.116Z,13.46
2023-03-13T18:12:11.612Z,13.48
2023-03-13T18:13:44.868Z,13.49
2023-03-13T18:15:17.193Z,13.48
2023-03-13T18:16:50.600Z,13.47
2023-03-13T18:18:22.440Z,13.47
2023-03-13T18:19:54.289Z,13.46
2023-03-13T18:21:26.133Z,13.48
2023-03-13T18:23:00.681Z,13.50
2023-03-13T18:24:32.634Z,13.49
2023-03-13T18:26:20.467Z,13.42
2023-03-13T18:27:52.202Z,13.45
2023-03-13T18:29:29.325Z,13.47
2023-03-13T18:31:01.171Z,13.48
2023-03-13T18:32:33.072Z,13.47
2023-03-13T18:34:04.957Z,13.48
2023-03-13T18:35:36.725Z,13.44
2023-03-13T18:37:20.730Z,13.44
2023-03-13T18:38:53.272Z,13.42
2023-03-13T18:40:28.840Z,13.43
2023-03-13T18:42:02.029Z,13.37
2023-03-13T18:43:34.177Z,13.34
2023-03-13T18:45:06.678Z,13.36
2023-03-13T18:46:38.458Z,13.34
2023-03-13T18:48:11.172Z,13.32
2023-03-13T18:49:43.288Z,13.31
2023-03-13T18:51:19.340Z,13.33
2023-03-13T18:52:55.650Z,13.32
2023-03-13T18:54:27.393Z,13.32
2023-03-13T18:56:06.030Z,13.30
2023-03-13T18:57:37.764Z,13.33
2023-03-13T18:59:14.277Z,13.34
2023-03-13T19:00:46.059Z,13.42
2023-03-13T19:02:18.718Z,13.44
2023-03-13T19:03:50.619Z,13.45
2023-03-13T19:05:23.304Z,13.47
2023-03-13T19:06:55.034Z,13.48
2023-03-13T19:08:26.904Z,13.49
2023-03-13T19:09:58.839Z,13.50
2023-03-13T19:11:32.872Z,13.49
2023-03-13T19:13:04.881Z,13.49
2023-03-13T19:14:36.594Z,13.50
2023-03-13T19:16:22.991Z,13.49
2023-03-13T19:17:56.360Z,13.49
2023-03-13T19:19:28.815Z,13.49
2023-03-13T19:21:00.640Z,13.47
2023-03-13T19:22:32.527Z,13.46
2023-03-13T19:24:04.566Z,13.47
2023-03-13T19:25:36.512Z,13.43
2023-03-13T19:27:13.325Z,13.41
2023-03-13T19:28:45.357Z,13.34
2023-03-13T19:30:21.219Z,13.25
2023-03-13T19:31:54.707Z,13.15
2023-03-13T19:33:26.625Z,13.02
2023-03-13T19:34:58.410Z,12.91
2023-03-13T19:36:44.902Z,12.78
2023-03-13T19:38:16.711Z,12.63
2023-03-13T19:39:49.296Z,12.53
2023-03-13T19:41:21.124Z,12.40
2023-03-13T19:42:52.862Z,12.29
2023-03-13T19:44:24.705Z,12.19
2023-03-13T19:45:56.485Z,12.08
2023-03-13T19:47:28.227Z,11.99
2023-03-13T19:49:02.170Z,11.89
2023-03-13T19:50:34.045Z,11.79
2023-03-13T19:52:05.781Z,11.70
2023-03-13T19:53:38.803Z,11.59
2023-03-13T19:55:10.625Z,11.51
2023-03-13T19:56:49.673Z,11.37
2023-03-13T19:58:21.812Z,11.31
2023-03-13T19:59:54.338Z,11.22
2023-03-13T20:01:28.335Z,11.12
2023-03-13T20:03:00.177Z,11.04
2023-03-13T20:04:33.191Z,10.96
2023-03-13T20:06:05.465Z,10.89
2023-03-13T20:07:37.966Z,10.79
2023-03-13T20:09:12.825Z,10.72
2023-03-13T20:10:44.732Z,10.68
2023-03-13T20:12:16.667Z,10.65
2023-03-13T20:13:48.687Z,10.61
2023-03-13T20:15:20.539Z,10.58
2023-03-13T20:16:52.264Z,10.49
2023-03-13T20:18:27.334Z,10.45
2023-03-13T20:19:59.053Z,10.43
2023-03-13T20:21:34.824Z,10.41
2023-03-13T20:23:06.794Z,10.35
